createdAt,value
2022-12-06T00:01:48.529Z,7.22
2022-12-06T00:04:17.899Z,8.35
2022-12-06T00:06:49.218Z,7.15
2022-12-06T00:09:23.336Z,7.18
2022-12-06T00:11:51.424Z,6.82
2022-12-06T00:14:20.083Z,6.32
2022-12-06T00:16:48.984Z,8.25
2022-12-06T00:19:19.564Z,7.80
2022-12-06T00:21:48.483Z,8.20
2022-12-06T00:24:18.666Z,8.32
2022-12-06T00:26:48.681Z,8.73
2022-12-06T00:29:22.020Z,8.98
2022-12-06T00:31:50.680Z,8.52
2022-12-06T00:34:18.354Z,8.68
2022-12-06T00:36:46.148Z,8.18
2022-12-06T00:39:17.950Z,8.65
2022-12-06T00:41:46.394Z,8.75
2022-12-06T00:44:14.200Z,8.40
2022-12-06T00:46:41.900Z,8.95
2022-12-06T00:49:10.263Z,8.45
2022-12-06T00:51:39.198Z,7.43
2022-12-06T00:54:08.576Z,7.35
2022-12-06T00:56:37.354Z,7.93
2022-12-06T00:59:06.350Z,7.35
2022-12-06T01:01:35.060Z,7.20
2022-12-06T01:04:07.337Z,7.53
2022-12-06T01:06:36.673Z,8.07
2022-12-06T01:09:10.476Z,7.55
2022-12-06T01:11:39.286Z,7.22
2022-12-06T01:14:07.043Z,7.93
2022-12-06T01:16:36.054Z,6.87
2022-12-06T01:19:05.663Z,7.43
2022-12-06T01:21:33.411Z,6.97
2022-12-06T01:24:01.083Z,7.70
2022-12-06T01:26:31.590Z,7.47
2022-12-06T01:29:00.936Z,8.05
2022-12-06T01:31:35.573Z,7.93
2022-12-06T01:34:06.370Z,7.43
2022-12-06T01:36:34.416Z,7.22
2022-12-06T01:39:07.596Z,7.07
2022-12-06T01:41:35.291Z,7.68
2022-12-06T01:44:02.997Z,7.53
2022-12-06T01:46:46.524Z,6.68
2022-12-06T01:49:14.074Z,7.03
2022-12-06T01:51:50.606Z,7.65
2022-12-06T01:54:21.046Z,6.53
2022-12-06T01:56:50.400Z,7.12
2022-12-06T01:59:18.450Z,7.07
2022-12-06T02:01:47.385Z,8.25
2022-12-06T02:04:17.446Z,8.27
2022-12-06T02:06:45.431Z,7.53
2022-12-06T02:09:14.789Z,9.13
2022-12-06T02:11:42.758Z,6.82
2022-12-06T02:14:13.938Z,7.72
2022-12-06T02:16:50.658Z,7.50
2022-12-06T02:19:43.027Z,7.57
2022-12-06T02:22:25.194Z,7.50
2022-12-06T02:25:02.814Z,7.05
2022-12-06T02:27:57.797Z,7.57
2022-12-06T02:30:45.019Z,8.90
2022-12-06T02:33:24.425Z,8.77
2022-12-06T02:36:01.762Z,8.95
2022-12-06T02:38:44.520Z,8.10
2022-12-06T02:41:25.245Z,8.80
2022-12-06T02:43:58.694Z,8.60
2022-12-06T02:46:30.855Z,9.48
2022-12-06T02:49:01.355Z,9.95
2022-12-06T02:51:31.275Z,9.73
2022-12-06T02:54:02.248Z,9.90
2022-12-06T02:56:33.078Z,9.10
2022-12-06T02:59:01.132Z,10.50
2022-12-06T03:01:32.869Z,11.07
2022-12-06T03:04:50.704Z,12.63
2022-12-06T03:07:24.562Z,11.23
2022-12-06T03:10:04.424Z,8.95
2022-12-06T03:12:41.188Z,9.23
2022-12-06T03:15:27.561Z,11.43
2022-12-06T03:17:59.423Z,11.05
2022-12-06T03:20:33.053Z,9.93
2022-12-06T03:23:08.124Z,10.30
2022-12-06T03:25:37.182Z,9.57
2022-12-06T03:28:10.338Z,10.27
2022-12-06T03:30:39.091Z,10.55
2022-12-06T03:33:07.069Z,7.82
2022-12-06T03:35:35.972Z,9.00
2022-12-06T03:38:10.144Z,9.23
2022-12-06T03:40:41.432Z,8.63
2022-12-06T03:43:09.203Z,8.10
2022-12-06T03:46:07.598Z,8.63
2022-12-06T03:48:41.819Z,7.75
2022-12-06T03:51:27.155Z,8.13
2022-12-06T03:53:58.465Z,9.60
2022-12-06T03:56:27.499Z,8.48
2022-12-06T03:58:55.491Z,7.55
2022-12-06T04:01:23.322Z,9.50
2022-12-06T04:03:51.340Z,9.25
2022-12-06T04:06:19.033Z,10.27
2022-12-06T04:08:46.742Z,8.30
2022-12-06T04:11:14.433Z,7.97
2022-12-06T04:13:42.650Z,8.48
2022-12-06T04:16:29.900Z,8.55
2022-12-06T04:18:57.560Z,9.07
2022-12-06T04:21:33.979Z,8.68
2022-12-06T04:24:01.700Z,10.50
2022-12-06T04:26:29.359Z,9.60
2022-12-06T04:29:15.765Z,10.38
2022-12-06T04:32:02.197Z,8.50
2022-12-06T04:34:48.402Z,8.88
2022-12-06T04:37:37.380Z,10.73
2022-12-06T04:40:05.369Z,10.45
2022-12-06T04:42:51.435Z,10.05
2022-12-06T04:45:19.043Z,9.63
2022-12-06T04:47:46.649Z,9.98
2022-12-06T04:50:14.296Z,10.13
2022-12-06T04:52:42.022Z,11.77
2022-12-06T04:55:10.139Z,9.48
2022-12-06T04:57:37.730Z,10.48
2022-12-06T05:00:06.041Z,9.95
2022-12-06T05:02:33.668Z,11.32
2022-12-06T05:05:01.293Z,11.20
2022-12-06T05:07:29.087Z,9.85
2022-12-06T05:09:56.720Z,11.68
2022-12-06T05:12:24.481Z,12.18
2022-12-06T05:14:52.206Z,9.60
2022-12-06T05:17:19.797Z,8.80
2022-12-06T05:19:47.496Z,9.52
2022-12-06T05:22:15.174Z,9.63
2022-12-06T05:24:42.807Z,9.52
2022-12-06T05:27:10.495Z,9.40
2022-12-06T05:29:38.105Z,9.32
2022-12-06T05:32:06.046Z,9.90
2022-12-06T05:34:33.660Z,10.30
2022-12-06T05:37:01.316Z,9.70
2022-12-06T05:39:30.452Z,10.00
2022-12-06T05:41:58.182Z,9.70
2022-12-06T05:44:25.866Z,10.75
2022-12-06T05:46:53.562Z,9.45
2022-12-06T05:49:21.282Z,11.00
2022-12-06T05:51:49.148Z,9.48
2022-12-06T05:54:16.788Z,10.77
2022-12-06T05:56:44.476Z,10.60
2022-12-06T05:59:12.369Z,10.05
2022-12-06T06:01:40.073Z,10.40
2022-12-06T06:04:07.920Z,10.75
2022-12-06T06:06:35.652Z,10.02
2022-12-06T06:09:03.303Z,10.65
2022-12-06T06:11:30.921Z,11.00
2022-12-06T06:13:58.598Z,11.10
2022-12-06T06:16:26.314Z,10.80
2022-12-06T06:18:54.082Z,9.70
2022-12-06T06:21:21.740Z,8.90
2022-12-06T06:23:49.312Z,9.43
2022-12-06T06:26:16.982Z,9.82
2022-12-06T06:28:44.619Z,9.52
2022-12-06T06:31:12.386Z,9.90
2022-12-06T06:33:40.090Z,10.55
2022-12-06T06:36:08.135Z,9.48
2022-12-06T06:38:35.841Z,9.85
2022-12-06T06:41:05.014Z,10.50
2022-12-06T06:43:33.636Z,9.52
2022-12-06T06:46:04.114Z,9.27
2022-12-06T06:48:35.303Z,9.93
2022-12-06T06:51:07.272Z,9.23
2022-12-06T06:53:35.520Z,9.63
2022-12-06T06:56:03.881Z,8.88
2022-12-06T06:58:31.700Z,8.77
2022-12-06T07:01:01.669Z,8.63
2022-12-06T07:03:30.350Z,7.87
2022-12-06T07:06:03.384Z,9.23
2022-12-06T07:08:32.484Z,8.95
2022-12-06T07:11:00.427Z,8.80
2022-12-06T07:13:29.393Z,9.20
2022-12-06T07:15:57.681Z,8.45
2022-12-06T07:18:25.950Z,7.85
2022-12-06T07:21:01.694Z,9.07
2022-12-06T07:23:29.407Z,9.68
2022-12-06T07:26:16.056Z,9.23
2022-12-06T07:28:46.429Z,10.30
2022-12-06T07:31:17.526Z,9.35
2022-12-06T07:33:46.191Z,10.15
2022-12-06T07:36:15.078Z,10.00
2022-12-06T07:38:44.351Z,9.88
2022-12-06T07:41:32.368Z,8.95
2022-12-06T07:44:20.488Z,8.88
2022-12-06T07:46:49.236Z,9.55
2022-12-06T07:49:18.805Z,9.88
2022-12-06T07:51:46.922Z,9.63
2022-12-06T07:54:16.018Z,9.43
2022-12-06T07:56:44.432Z,10.05
2022-12-06T07:59:12.848Z,9.90
2022-12-06T08:01:40.821Z,7.68
2022-12-06T08:04:09.045Z,7.28
2022-12-06T08:06:37.232Z,8.23
2022-12-06T08:09:05.744Z,9.07
2022-12-06T08:11:33.576Z,8.32
2022-12-06T08:14:01.464Z,9.10
2022-12-06T08:16:29.200Z,9.52
2022-12-06T08:18:57.137Z,9.15
2022-12-06T08:21:27.391Z,10.68
2022-12-06T08:23:55.838Z,8.85
2022-12-06T08:26:24.389Z,9.00
2022-12-06T08:28:52.615Z,8.93
2022-12-06T08:31:23.023Z,10.20
2022-12-06T08:33:51.374Z,13.60
2022-12-06T08:36:22.477Z,10.07
2022-12-06T08:38:50.434Z,10.40
2022-12-06T08:41:37.478Z,8.93
2022-12-06T08:44:05.967Z,10.15
2022-12-06T08:46:35.390Z,10.45
2022-12-06T08:49:03.323Z,11.25
2022-12-06T08:51:32.555Z,10.32
2022-12-06T08:54:00.248Z,11.93
2022-12-06T08:56:28.785Z,12.13
2022-12-06T08:58:57.584Z,11.15
2022-12-06T09:01:35.785Z,11.73
2022-12-06T09:04:08.224Z,11.27
2022-12-06T09:06:38.777Z,10.50
2022-12-06T09:09:07.322Z,11.73
2022-12-06T09:11:35.015Z,10.63
2022-12-06T09:14:02.761Z,11.60
2022-12-06T09:16:30.751Z,11.05
2022-12-06T09:18:59.239Z,12.52
2022-12-06T09:21:31.532Z,10.77
2022-12-06T09:24:00.085Z,10.45
2022-12-06T09:26:29.030Z,10.20
2022-12-06T09:28:57.867Z,11.60
2022-12-06T09:31:26.785Z,11.25
2022-12-06T09:33:54.538Z,11.07
2022-12-06T09:36:31.417Z,10.18
2022-12-06T09:39:11.406Z,9.95
2022-12-06T09:41:55.325Z,11.05
2022-12-06T09:44:59.955Z,11.40
2022-12-06T09:47:46.584Z,11.73
2022-12-06T09:50:17.142Z,11.20
2022-12-06T09:53:18.754Z,11.90
2022-12-06T09:55:55.462Z,11.90
2022-12-06T09:58:57.729Z,11.45
2022-12-06T10:01:25.312Z,12.02
2022-12-06T10:04:16.191Z,13.00
2022-12-06T10:06:49.527Z,12.00
2022-12-06T10:09:39.998Z,11.27
2022-12-06T10:12:36.961Z,11.90
2022-12-06T10:15:36.155Z,11.27
2022-12-06T10:18:36.729Z,12.57
2022-12-06T10:21:12.678Z,10.75
2022-12-06T10:24:13.039Z,11.90
2022-12-06T10:26:52.500Z,13.02
2022-12-06T10:29:29.431Z,11.12
2022-12-06T10:31:59.161Z,10.20
2022-12-06T10:34:48.891Z,9.98
2022-12-06T10:37:41.528Z,10.65
2022-12-06T10:40:22.091Z,10.00
2022-12-06T10:43:03.505Z,10.48
2022-12-06T10:45:57.863Z,12.00
2022-12-06T10:48:43.298Z,10.35
2022-12-06T10:51:17.966Z,11.00
2022-12-06T10:53:51.047Z,9.45
2022-12-06T10:56:27.377Z,10.18
2022-12-06T10:59:01.791Z,10.48
2022-12-06T11:01:35.402Z,9.80
2022-12-06T11:04:11.854Z,10.68
2022-12-06T11:06:53.068Z,12.18
2022-12-06T11:09:42.512Z,10.20
2022-12-06T11:12:35.051Z,9.88
2022-12-06T11:15:18.281Z,11.07
2022-12-06T11:18:02.517Z,10.57
2022-12-06T11:20:39.908Z,12.43
2022-12-06T11:23:20.501Z,10.32
2022-12-06T11:26:33.280Z,10.95
2022-12-06T11:29:08.680Z,10.70
2022-12-06T11:31:46.941Z,10.05
2022-12-06T11:34:28.234Z,9.88
2022-12-06T11:37:00.352Z,10.88
2022-12-06T11:39:30.391Z,10.52
2022-12-06T11:42:02.721Z,10.35
2022-12-06T11:44:42.507Z,11.57
2022-12-06T11:47:21.431Z,10.00
2022-12-06T11:49:52.193Z,11.65
2022-12-06T11:52:23.131Z,10.23
2022-12-06T11:55:03.485Z,10.30
2022-12-06T11:57:38.321Z,10.77
2022-12-06T12:00:17.551Z,10.55
2022-12-06T12:02:47.574Z,10.73
2022-12-06T12:05:22.421Z,10.88
2022-12-06T12:08:03.257Z,9.88
2022-12-06T12:10:36.769Z,9.65
2022-12-06T12:13:38.605Z,10.35
2022-12-06T12:16:17.813Z,8.63
2022-12-06T12:19:01.340Z,9.90
2022-12-06T12:21:43.544Z,10.45
2022-12-06T12:27:40.814Z,9.73
2022-12-06T12:30:30.923Z,9.63
2022-12-06T12:33:07.765Z,10.20
2022-12-06T12:35:37.097Z,9.88
2022-12-06T12:38:10.673Z,11.45
2022-12-06T12:40:47.332Z,11.00
2022-12-06T12:43:20.240Z,9.65
2022-12-06T12:46:10.954Z,9.05
2022-12-06T12:48:46.988Z,9.63
2022-12-06T12:51:36.450Z,9.88
2022-12-06T12:54:19.480Z,10.40
2022-12-06T12:56:47.209Z,10.80
2022-12-06T12:59:21.055Z,9.40
2022-12-06T13:02:06.524Z,9.60
2022-12-06T13:04:50.760Z,9.20
2022-12-06T13:07:32.710Z,10.43
2022-12-06T13:10:06.238Z,8.45
2022-12-06T13:12:44.313Z,8.43
2022-12-06T13:15:48.490Z,9.35
2022-12-06T13:18:30.779Z,9.18
2022-12-06T13:21:02.461Z,8.25
2022-12-06T13:23:35.300Z,10.23
2022-12-06T13:26:15.977Z,9.57
2022-12-06T13:28:51.934Z,9.75
2022-12-06T13:31:22.252Z,10.35
2022-12-06T13:33:54.917Z,9.10
2022-12-06T13:36:25.548Z,9.52
2022-12-06T13:38:53.391Z,8.98
2022-12-06T13:41:54.889Z,10.48
2022-12-06T13:44:44.425Z,10.43
2022-12-06T13:47:30.616Z,9.90
2022-12-06T13:50:00.894Z,10.43
2022-12-06T13:52:57.667Z,9.30
2022-12-06T13:55:25.448Z,9.63
2022-12-06T13:58:01.156Z,9.57
2022-12-06T14:00:31.831Z,9.38
2022-12-06T14:03:04.109Z,9.32
2022-12-06T14:06:14.374Z,10.23
2022-12-06T14:09:00.511Z,10.80
2022-12-06T14:11:35.158Z,10.77
2022-12-06T14:14:18.287Z,10.55
2022-12-06T14:16:50.009Z,9.68
2022-12-06T14:19:25.189Z,9.60
2022-12-06T14:22:03.927Z,10.55
2022-12-06T14:24:41.474Z,10.85
2022-12-06T14:27:14.604Z,10.02
2022-12-06T14:29:44.276Z,10.38
2022-12-06T14:32:12.016Z,10.40
2022-12-06T14:34:39.753Z,9.52
2022-12-06T14:37:22.688Z,9.10
2022-12-06T14:39:54.679Z,10.57
2022-12-06T14:42:41.507Z,10.13
2022-12-06T14:45:17.241Z,10.32
2022-12-06T14:47:46.143Z,9.55
2022-12-06T14:50:32.268Z,10.07
2022-12-06T14:53:00.079Z,9.38
2022-12-06T14:55:30.471Z,9.52
2022-12-06T14:58:21.153Z,9.95
2022-12-06T15:00:55.593Z,9.93
2022-12-06T15:03:33.549Z,9.88
2022-12-06T15:06:16.472Z,9.60
2022-12-06T15:08:50.572Z,8.82
2022-12-06T15:11:50.098Z,9.13
2022-12-06T15:14:46.801Z,9.88
2022-12-06T15:17:14.353Z,10.20
2022-12-06T15:19:48.431Z,9.25
2022-12-06T15:22:25.871Z,8.95
2022-12-06T15:24:58.886Z,9.52
2022-12-06T15:27:28.961Z,9.38
2022-12-06T15:29:56.728Z,10.48
2022-12-06T15:32:27.193Z,10.18
2022-12-06T15:34:54.918Z,10.27
2022-12-06T15:37:38.542Z,10.73
2022-12-06T15:40:08.072Z,12.98
2022-12-06T15:42:35.720Z,9.82
2022-12-06T15:45:03.734Z,10.07
2022-12-06T15:47:31.614Z,9.82
2022-12-06T15:49:59.413Z,10.13
2022-12-06T15:52:28.168Z,9.30
2022-12-06T15:54:55.919Z,9.50
2022-12-06T15:57:23.627Z,8.93
2022-12-06T15:59:51.320Z,9.48
2022-12-06T16:02:19.633Z,9.32
2022-12-06T16:04:49.556Z,10.18
2022-12-06T16:07:19.779Z,9.32
2022-12-06T16:09:48.567Z,9.63
2022-12-06T16:12:16.416Z,8.98
2022-12-06T16:14:44.225Z,9.25
2022-12-06T16:17:11.968Z,9.57
2022-12-06T16:19:58.151Z,9.40
2022-12-06T16:22:45.832Z,9.68
2022-12-06T16:25:13.550Z,10.25
2022-12-06T16:27:41.316Z,10.18
2022-12-06T16:30:10.277Z,9.88
2022-12-06T16:32:37.980Z,9.70
2022-12-06T16:35:05.860Z,10.10
2022-12-06T16:37:33.516Z,9.70
2022-12-06T16:40:01.241Z,10.00
2022-12-06T16:42:28.905Z,11.02
2022-12-06T16:44:56.524Z,9.38
2022-12-06T16:49:49.751Z,12.18
2022-12-06T16:52:18.327Z,13.50
2022-12-06T16:54:46.384Z,12.23
2022-12-06T16:57:15.222Z,12.02
2022-12-06T16:59:43.496Z,12.18
2022-12-06T17:02:27.385Z,12.10
2022-12-06T17:04:55.789Z,12.32
2022-12-06T17:07:23.860Z,12.37
2022-12-06T17:09:51.541Z,11.77
2022-12-06T17:12:19.450Z,11.48
2022-12-06T17:14:47.311Z,12.10
2022-12-06T17:17:21.405Z,12.48
2022-12-06T17:19:50.254Z,12.32
2022-12-06T17:22:18.402Z,11.00
2022-12-06T17:24:46.324Z,10.35
2022-12-06T17:27:15.604Z,11.40
2022-12-06T17:29:44.540Z,11.60
2022-12-06T17:32:13.019Z,12.52
2022-12-06T17:34:40.758Z,11.95
2022-12-06T17:37:08.559Z,12.82
2022-12-06T17:39:36.535Z,14.27
2022-12-06T17:42:23.038Z,13.38
2022-12-06T17:44:52.885Z,13.30
2022-12-06T17:47:20.965Z,11.43
2022-12-06T17:49:48.779Z,12.45
2022-12-06T17:52:16.887Z,11.80
2022-12-06T17:54:44.933Z,11.48
2022-12-06T17:57:17.269Z,13.52
2022-12-06T17:59:47.053Z,11.18
2022-12-06T18:02:20.392Z,12.60
2022-12-06T18:04:49.013Z,13.23
2022-12-06T18:07:18.317Z,12.60
2022-12-06T18:09:46.316Z,13.13
2022-12-06T18:12:15.441Z,13.90
2022-12-06T18:14:43.468Z,12.25
2022-12-06T18:17:12.653Z,11.80
2022-12-06T18:19:41.853Z,12.10
2022-12-06T18:22:09.572Z,14.05
2022-12-06T18:24:37.450Z,11.98
2022-12-06T18:27:06.838Z,13.20
2022-12-06T18:29:35.252Z,12.13
2022-12-06T18:32:03.412Z,12.07
2022-12-06T18:34:31.524Z,12.05
2022-12-06T18:36:59.332Z,12.52
2022-12-06T18:39:27.130Z,12.80
2022-12-06T18:41:55.551Z,13.88
2022-12-06T18:44:23.955Z,13.32
2022-12-06T18:46:51.659Z,12.98
2022-12-06T18:49:19.672Z,13.62
2022-12-06T18:51:47.723Z,13.35
2022-12-06T18:54:15.530Z,13.10
2022-12-06T18:56:43.396Z,11.90
2022-12-06T18:59:12.919Z,13.43
2022-12-06T19:01:41.854Z,12.23
2022-12-06T19:04:15.409Z,13.52
2022-12-06T19:06:44.746Z,12.50
2022-12-06T19:09:14.956Z,14.07
2022-12-06T19:11:46.757Z,14.27
2022-12-06T19:14:15.588Z,14.60
2022-12-06T19:16:45.695Z,14.35
2022-12-06T19:19:22.151Z,13.88
2022-12-06T19:21:51.430Z,15.07
2022-12-06T19:24:22.687Z,14.13
2022-12-06T19:26:52.575Z,15.27
2022-12-06T19:29:20.590Z,14.85
2022-12-06T19:31:48.332Z,13.15
2022-12-06T19:34:19.113Z,13.30
2022-12-06T19:36:47.739Z,13.40
2022-12-06T19:39:15.489Z,13.40
2022-12-06T19:42:02.188Z,13.68
2022-12-06T19:44:31.121Z,13.62
2022-12-06T19:46:59.752Z,13.82
2022-12-06T19:49:28.357Z,14.87
2022-12-06T19:51:56.291Z,14.07
2022-12-06T19:54:26.864Z,15.18
2022-12-06T19:56:57.967Z,14.87
2022-12-06T19:59:28.414Z,13.75
2022-12-06T20:01:59.151Z,14.15
2022-12-06T20:04:32.685Z,14.23
2022-12-06T20:07:00.748Z,16.83
2022-12-06T20:09:31.014Z,16.25
2022-12-06T20:12:03.254Z,14.98
2022-12-06T20:14:46.334Z,14.25
2022-12-06T20:17:20.217Z,13.02
2022-12-06T20:19:49.413Z,11.80
2022-12-06T20:22:18.396Z,14.25
2022-12-06T20:24:46.265Z,12.73
2022-12-06T20:27:14.014Z,14.52
2022-12-06T20:29:41.875Z,14.55
2022-12-06T20:32:11.278Z,13.85
2022-12-06T20:34:39.194Z,13.70
2022-12-06T20:37:07.498Z,15.30
2022-12-06T20:39:36.609Z,13.75
2022-12-06T20:42:06.895Z,14.87
2022-12-06T20:44:35.542Z,15.02
2022-12-06T20:47:03.354Z,15.07
2022-12-06T20:49:31.219Z,16.02
2022-12-06T20:52:00.773Z,13.50
2022-12-06T20:54:28.477Z,15.63
2022-12-06T20:56:56.190Z,14.50
2022-12-06T20:59:23.900Z,15.07
2022-12-06T21:01:51.750Z,13.52
2022-12-06T21:04:19.542Z,15.57
2022-12-06T21:06:47.300Z,14.87
2022-12-06T21:09:14.965Z,13.48
2022-12-06T21:11:42.714Z,14.18
2022-12-06T21:14:12.629Z,13.18
2022-12-06T21:16:42.185Z,12.63
2022-12-06T21:19:13.539Z,14.07
2022-12-06T21:21:44.724Z,13.48
2022-12-06T21:24:15.481Z,13.27
2022-12-06T21:26:43.436Z,12.10
2022-12-06T21:29:20.849Z,14.05
2022-12-06T21:31:50.406Z,13.02
2022-12-06T21:34:18.145Z,14.23
2022-12-06T21:36:45.988Z,14.25
2022-12-06T21:39:15.627Z,13.88
2022-12-06T21:41:43.423Z,12.37
2022-12-06T21:44:11.390Z,13.48
2022-12-06T21:46:39.224Z,14.15
2022-12-06T21:49:07.073Z,15.32
2022-12-06T21:51:34.923Z,13.02
2022-12-06T21:54:02.775Z,13.27
2022-12-06T21:56:31.854Z,12.68
2022-12-06T21:59:02.118Z,15.25
2022-12-06T22:01:31.659Z,15.02
2022-12-06T22:04:01.536Z,13.95
2022-12-06T22:06:29.429Z,13.25
2022-12-06T22:09:05.045Z,14.07
2022-12-06T22:11:33.040Z,13.98
2022-12-06T22:14:02.091Z,12.90
2022-12-06T22:16:29.947Z,12.93
2022-12-06T22:18:58.339Z,14.90
2022-12-06T22:21:28.326Z,13.25
2022-12-06T22:23:58.495Z,13.20
2022-12-06T22:26:29.401Z,12.15
2022-12-06T22:28:58.746Z,12.37
2022-12-06T22:31:29.105Z,11.95
2022-12-06T22:33:58.129Z,13.85
2022-12-06T22:36:26.738Z,13.10
2022-12-06T22:38:59.998Z,13.65
2022-12-06T22:41:29.246Z,13.82
2022-12-06T22:44:02.631Z,11.93
2022-12-06T22:46:31.410Z,13.98
2022-12-06T22:49:00.304Z,13.10
2022-12-06T22:51:30.136Z,12.75
2022-12-06T22:54:03.649Z,14.05
2022-12-06T22:56:32.380Z,12.60
2022-12-06T22:59:01.050Z,13.27
2022-12-06T23:01:31.476Z,14.23
2022-12-06T23:06:29.034Z,13.70
2022-12-06T23:08:57.540Z,13.80
2022-12-06T23:11:31.519Z,14.38
2022-12-06T23:14:00.491Z,14.13
2022-12-06T23:16:30.113Z,14.82
2022-12-06T23:18:59.757Z,13.18
2022-12-06T23:21:30.230Z,14.95
2022-12-06T23:24:00.905Z,15.45
2022-12-06T23:26:35.090Z,14.07
2022-12-06T23:29:02.943Z,15.02
2022-12-06T23:31:33.243Z,15.98
2022-12-06T23:34:07.100Z,14.98
2022-12-06T23:36:36.096Z,15.82
2022-12-06T23:39:05.103Z,15.82
2022-12-06T23:41:33.638Z,14.90
2022-12-06T23:44:01.609Z,15.02
2022-12-06T23:46:32.300Z,15.90
2022-12-06T23:49:00.552Z,15.18
2022-12-06T23:51:32.656Z,17.05
2022-12-06T23:54:01.669Z,17.30
2022-12-06T23:56:32.783Z,15.05
2022-12-06T23:59:02.398Z,17.17
